Felix-Klein-Gymnasium, Gttingen, 150m NN
Donnes mto: Actuelle Sonntag, 17.11.2019 01:15
Date Horaire Temp. E. Hum. E. P.atmo. Pluie Vent Direction Direction Ensoleilleme P. de rose Temp au vent Rafales
17.11.2019 01:15 -0,1 C 94 % 1012,5 hPa 0,0 mm 0,0 km/h (0 Bft) S-SO 201 0 min -0,9 C -0,1 C 0,0 km/h (0 Bft)
17.11.2019 01:00 0,0 C 94 % 1012,4 hPa 0,0 mm 0,0 km/h (0 Bft) S-SO 201 0 min -0,8 C 0,0 C 0,0 km/h (0 Bft)
17.11.2019 00:45 0,1 C 94 % 1012,4 hPa 0,0 mm 0,0 km/h (0 Bft) S-SO 201 0 min -0,7 C 0,1 C 0,0 km/h (0 Bft)
17.11.2019 00:30 0,2 C 94 % 1012,4 hPa 0,0 mm 0,0 km/h (0 Bft) S-SO 201 0 min -0,6 C 0,2 C 0,0 km/h (0 Bft)
17.11.2019 00:15 0,3 C 94 % 1012,0 hPa 0,0 mm 0,0 km/h (0 Bft) S-SO 201 0 min -0,5 C 0,3 C 0,0 km/h (0 Bft)
17.11.2019 00:00 0,6 C 94 % 1011,9 hPa 0,0 mm 0,0 km/h (0 Bft) S-SO 200 0 min -0,3 C 0,6 C 0,0 km/h (0 Bft)
16.11.2019 22:45 0,9 C 94 % 1011,8 hPa 0,0 mm 0,0 km/h (0 Bft) S-SO 200 0 min 0,0 C 0,9 C 0,0 km/h (0 Bft)
16.11.2019 22:30 0,9 C 94 % 1011,9 hPa 0,0 mm 0,0 km/h (0 Bft) S-SO 200 0 min 0,0 C 0,9 C 0,0 km/h (0 Bft)
16.11.2019 22:15 0,8 C 93 % 1012,1 hPa 0,0 mm 0,0 km/h (0 Bft) S-SO 200 0 min -0,2 C 0,8 C 0,0 km/h (0 Bft)
16.11.2019 22:00 0,8 C 92 % 1011,8 hPa 0,0 mm 0,0 km/h (0 Bft) S-SO 200 0 min -0,3 C 0,8 C 0,0 km/h (0 Bft)
16.11.2019 21:45 1,1 C 91 % 1011,8 hPa 0,0 mm 0,0 km/h (0 Bft) S-SO 200 0 min -0,2 C 1,1 C 0,0 km/h (0 Bft)
16.11.2019 21:30 1,6 C 91 % 1012,0 hPa 0,0 mm 0,0 km/h (0 Bft) S-SO 200 0 min 0,3 C 1,6 C 3,2 km/h (1 Bft)
16.11.2019 21:15 2,3 C 90 % 1011,5 hPa 0,0 mm 0,0 km/h (0 Bft) S 171 0 min 0,8 C 2,3 C 0,0 km/h (0 Bft)
16.11.2019 21:00 2,6 C 91 % 1011,3 hPa 0,0 mm 0,0 km/h (0 Bft) S 171 0 min 1,3 C 2,6 C 0,0 km/h (0 Bft)
16.11.2019 20:45 2,7 C 91 % 1011,3 hPa 0,0 mm 0,0 km/h (0 Bft) S 170 0 min 1,4 C 2,7 C 0,0 km/h (0 Bft)
16.11.2019 20:30 2,8 C 91 % 1011,7 hPa 0,0 mm 0,0 km/h (0 Bft) S 170 0 min 1,5 C 2,8 C 0,0 km/h (0 Bft)
16.11.2019 20:15 2,8 C 91 % 1011,5 hPa 0,0 mm 0,2 km/h (0 Bft) S-SE 153 0 min 1,5 C 2,8 C 6,4 km/h (2 Bft)
16.11.2019 20:00 2,8 C 90 % 1011,4 hPa 0,0 mm 0,0 km/h (0 Bft) S 175 0 min 1,3 C 2,8 C 0,0 km/h (0 Bft)
16.11.2019 19:45 3,0 C 90 % 1011,1 hPa 0,0 mm 0,0 km/h (0 Bft) SE 124 0 min 1,5 C 3,0 C 0,0 km/h (0 Bft)
16.11.2019 19:30 2,8 C 89 % 1011,3 hPa 0,0 mm 0,0 km/h (0 Bft) S 171 0 min 1,2 C 2,8 C 1,6 km/h (1 Bft)
16.11.2019 19:15 3,1 C 88 % 1011,5 hPa 0,0 mm 6,1 km/h (2 Bft) S-SE 164 0 min 1,3 C 1,5 C 12,9 km/h (3 Bft)
16.11.2019 19:00 3,3 C 88 % 1011,2 hPa 0,0 mm 7,1 km/h (2 Bft) S 180 0 min 1,5 C 1,4 C 12,9 km/h (3 Bft)
16.11.2019 18:45 3,3 C 88 % 1010,9 hPa 0,0 mm 6,3 km/h (2 Bft) S-SE 153 0 min 1,5 C 1,7 C 14,5 km/h (3 Bft)
16.11.2019 18:30 3,6 C 86 % 1010,4 hPa 0,0 mm 4,8 km/h (1 Bft) S-SE 165 0 min 1,5 C 2,6 C 11,3 km/h (2 Bft)
16.11.2019 18:15 3,7 C 86 % 1010,5 hPa 0,0 mm 6,3 km/h (2 Bft) S 172 0 min 1,6 C 2,1 C 12,9 km/h (3 Bft)
16.11.2019 18:00 4,0 C 85 % 1010,0 hPa 0,0 mm 1,6 km/h (1 Bft) S 183 0 min 1,7 C 4,0 C 8,0 km/h (2 Bft)
16.11.2019 17:45 4,2 C 84 % 1009,8 hPa 0,0 mm 2,7 km/h (1 Bft) SE 144 0 min 1,7 C 4,2 C 9,7 km/h (2 Bft)
16.11.2019 17:30 4,3 C 84 % 1009,6 hPa 0,0 mm 0,5 km/h (0 Bft) S-SE 158 0 min 1,8 C 4,3 C 6,4 km/h (2 Bft)
16.11.2019 17:15 4,4 C 84 % 1009,5 hPa 0,0 mm 0,0 km/h (0 Bft) SE 146 0 min 1,9 C 4,4 C 0,0 km/h (0 Bft)
16.11.2019 17:00 4,6 C 83 % 1009,2 hPa 0,0 mm 0,4 km/h (0 Bft) S 180 0 min 2,0 C 4,6 C 6,4 km/h (2 Bft)
16.11.2019 16:45 4,8 C 83 % 1009,3 hPa 0,0 mm 3,0 km/h (1 Bft) S-SE 163 0 min 2,2 C 4,8 C 9,7 km/h (2 Bft)
16.11.2019 16:30 5,0 C 82 % 1009,1 hPa 0,0 mm 1,5 km/h (1 Bft) S 175 0 min 2,2 C 5,0 C 9,7 km/h (2 Bft)
16.11.2019 16:15 5,3 C 81 % 1008,9 hPa 0,0 mm 0,0 km/h (0 Bft) S-SE 153 15 min 2,3 C 5,3 C 3,2 km/h (1 Bft)
16.11.2019 16:00 5,4 C 80 % 1008,8 hPa 0,0 mm 0,4 km/h (0 Bft) SO 222 0 min 2,2 C 5,4 C 8,0 km/h (2 Bft)
16.11.2019 15:45 5,4 C 80 % 1008,7 hPa 0,0 mm 0,7 km/h (0 Bft) S-SO 206 0 min 2,2 C 5,4 C 8,0 km/h (2 Bft)
16.11.2019 15:30 5,3 C 80 % 1008,6 hPa 0,0 mm 3,5 km/h (1 Bft) SO 215 0 min 2,1 C 5,3 C 16,1 km/h (3 Bft)
16.11.2019 15:15 5,4 C 81 % 1008,5 hPa 0,0 mm 0,9 km/h (0 Bft) S 189 0 min 2,4 C 5,4 C 11,3 km/h (2 Bft)
16.11.2019 15:00 5,3 C 81 % 1008,3 hPa 0,0 mm 1,9 km/h (1 Bft) S-SO 202 0 min 2,3 C 5,3 C 22,5 km/h (4 Bft)
16.11.2019 14:45 5,3 C 81 % 1008,0 hPa 0,0 mm 4,0 km/h (1 Bft) O 275 0 min 2,3 C 5,3 C 30,6 km/h (5 Bft)
16.11.2019 14:30 5,2 C 83 % 1007,7 hPa 0,0 mm 2,7 km/h (1 Bft) S-SO 202 0 min 2,6 C 5,2 C 14,5 km/h (3 Bft)
16.11.2019 14:15 5,1 C 83 % 1007,6 hPa 0,0 mm 0,5 km/h (0 Bft) O 278 0 min 2,5 C 5,1 C 9,7 km/h (2 Bft)
16.11.2019 14:00 4,9 C 83 % 1007,5 hPa 0,0 mm 4,5 km/h (1 Bft) O-SO 240 0 min 2,3 C 4,9 C 17,7 km/h (3 Bft)
16.11.2019 13:45 4,9 C 83 % 1007,3 hPa 0,0 mm 7,5 km/h (2 Bft) S 175 0 min 2,3 C 3,2 C 20,9 km/h (4 Bft)
16.11.2019 13:30 5,0 C 83 % 1007,1 hPa 0,0 mm 8,1 km/h (2 Bft) SO 228 0 min 2,4 C 3,1 C 25,7 km/h (4 Bft)
16.11.2019 13:15 5,3 C 84 % 1007,0 hPa 0,0 mm 4,7 km/h (1 Bft) SE 146 0 min 2,8 C 4,5 C 29,0 km/h (5 Bft)
16.11.2019 13:00 5,6 C 85 % 1006,9 hPa 0,0 mm 3,6 km/h (1 Bft) S-SO 202 0 min 3,3 C 5,6 C 19,3 km/h (3 Bft)
16.11.2019 12:45 5,8 C 84 % 1006,5 hPa 0,0 mm 8,8 km/h (2 Bft) SO 219 0 min 3,3 C 3,9 C 35,4 km/h (5 Bft)
16.11.2019 12:30 6,2 C 85 % 1006,3 hPa 0,0 mm 8,3 km/h (2 Bft) SO 234 0 min 3,9 C 4,5 C 25,7 km/h (4 Bft)
16.11.2019 12:15 6,4 C 86 % 1005,9 hPa 0,0 mm 3,0 km/h (1 Bft) S-SO 205 0 min 4,2 C 6,4 C 19,3 km/h (3 Bft)
16.11.2019 12:00 5,9 C 87 % 1006,0 hPa 0,0 mm 2,8 km/h (1 Bft) SO 214 15 min 3,9 C 5,9 C 16,1 km/h (3 Bft)
16.11.2019 11:45 5,4 C 88 % 1006,1 hPa 0,0 mm 1,5 km/h (1 Bft) SO 227 15 min 3,6 C 5,4 C 22,5 km/h (4 Bft)
16.11.2019 11:30 5,3 C 89 % 1006,1 hPa 0,0 mm 3,2 km/h (1 Bft) SO 234 0 min 3,6 C 5,3 C 12,9 km/h (3 Bft)
16.11.2019 11:15 5,2 C 90 % 1006,0 hPa 0,0 mm 0,9 km/h (0 Bft) S-SO 193 0 min 3,7 C 5,2 C 11,3 km/h (2 Bft)
16.11.2019 11:00 4,8 C 91 % 1006,0 hPa 0,0 mm 0,0 km/h (0 Bft) S-SO 202 0 min 3,5 C 4,8 C 0,0 km/h (0 Bft)
16.11.2019 10:45 4,6 C 91 % 1006,0 hPa 0,0 mm 2,0 km/h (1 Bft) SO 225 0 min 3,3 C 4,6 C 16,1 km/h (3 Bft)
16.11.2019 10:30 4,3 C 92 % 1006,0 hPa 0,0 mm 3,9 km/h (1 Bft) S-SO 206 0 min 3,1 C 4,3 C 17,7 km/h (3 Bft)
16.11.2019 10:15 4,2 C 92 % 1005,6 hPa 0,0 mm 0,0 km/h (0 Bft) S 190 0 min 3,0 C 4,2 C 0,0 km/h (0 Bft)
16.11.2019 10:00 4,0 C 93 % 1005,4 hPa 0,0 mm 0,0 km/h (0 Bft) S-SO 193 0 min 3,0 C 4,0 C 0,0 km/h (0 Bft)
16.11.2019 09:45 3,9 C 93 % 1005,4 hPa 0,0 mm 0,0 km/h (0 Bft) S-SO 201 0 min 2,9 C 3,9 C 0,0 km/h (0 Bft)
16.11.2019 09:30 3,7 C 93 % 1005,2 hPa 0,0 mm 0,5 km/h (0 Bft) SO 221 0 min 2,7 C 3,7 C 11,3 km/h (2 Bft)
16.11.2019 09:15 3,7 C 93 % 1005,0 hPa 0,0 mm 0,8 km/h (0 Bft) O 262 0 min 2,7 C 3,7 C 8,0 km/h (2 Bft)
16.11.2019 09:00 3,6 C 94 % 1004,7 hPa 0,0 mm 0,1 km/h (0 Bft) O-SO 254 0 min 2,7 C 3,6 C 6,4 km/h (2 Bft)
16.11.2019 08:45 3,5 C 93 % 1004,6 hPa 0,0 mm 0,0 km/h (0 Bft) O 259 0 min 2,5 C 3,5 C 0,0 km/h (0 Bft)
16.11.2019 08:30 3,4 C 93 % 1004,4 hPa 0,0 mm 0,6 km/h (0 Bft) O 259 0 min 2,4 C 3,4 C 9,7 km/h (2 Bft)
16.11.2019 08:15 3,3 C 94 % 1004,1 hPa 0,0 mm 0,5 km/h (0 Bft) O-SO 257 0 min 2,4 C 3,3 C 9,7 km/h (2 Bft)
16.11.2019 08:00 3,3 C 94 % 1003,8 hPa 0,0 mm 0,0 km/h (0 Bft) O 269 0 min 2,4 C 3,3 C 0,0 km/h (0 Bft)
16.11.2019 07:45 3,3 C 94 % 1003,5 hPa 0,0 mm 0,3 km/h (0 Bft) O 276 0 min 2,4 C 3,3 C 6,4 km/h (2 Bft)
16.11.2019 07:30 3,4 C 94 % 1003,3 hPa 0,0 mm 0,0 km/h (0 Bft) O-NO 289 0 min 2,5 C 3,4 C 0,0 km/h (0 Bft)
16.11.2019 07:15 3,5 C 94 % 1003,2 hPa 0,0 mm 0,0 km/h (0 Bft) O-NO 290 0 min 2,6 C 3,5 C 0,0 km/h (0 Bft)
16.11.2019 07:00 3,5 C 94 % 1003,1 hPa 0,3 mm 0,1 km/h (0 Bft) O-NO 290 0 min 2,6 C 3,5 C 6,4 km/h (2 Bft)
16.11.2019 06:45 3,6 C 94 % 1003,1 hPa 0,3 mm 0,0 km/h (0 Bft) O-NO 292 0 min 2,7 C 3,6 C 0,0 km/h (0 Bft)
16.11.2019 06:30 3,7 C 94 % 1003,1 hPa 0,3 mm 0,0 km/h (0 Bft) O-NO 293 0 min 2,8 C 3,7 C 0,0 km/h (0 Bft)
16.11.2019 06:15 3,7 C 94 % 1003,1 hPa 0,5 mm 0,0 km/h (0 Bft) O-NO 294 0 min 2,8 C 3,7 C 0,0 km/h (0 Bft)
16.11.2019 06:00 3,8 C 94 % 1003,1 hPa 0,8 mm 0,0 km/h (0 Bft) O-NO 292 0 min 2,9 C 3,8 C 0,0 km/h (0 Bft)
16.11.2019 05:45 3,8 C 94 % 1002,8 hPa 0,5 mm 1,0 km/h (0 Bft) O-NO 292 0 min 2,9 C 3,8 C 9,7 km/h (2 Bft)
16.11.2019 05:30 3,9 C 95 % 1002,8 hPa 0,8 mm 0,3 km/h (0 Bft) O 277 0 min 3,2 C 3,9 C 9,7 km/h (2 Bft)
16.11.2019 05:15 4,1 C 95 % 1002,8 hPa 0,3 mm 0,0 km/h (0 Bft) SO 225 0 min 3,4 C 4,1 C 0,0 km/h (0 Bft)
16.11.2019 05:00 4,1 C 95 % 1002,6 hPa 0,3 mm 0,0 km/h (0 Bft) SO 224 0 min 3,4 C 4,1 C 0,0 km/h (0 Bft)
16.11.2019 04:45 4,2 C 95 % 1002,4 hPa 0,5 mm 0,0 km/h (0 Bft) SO 223 0 min 3,5 C 4,2 C 0,0 km/h (0 Bft)
16.11.2019 04:30 4,2 C 95 % 1002,4 hPa 0,5 mm 0,0 km/h (0 Bft) SO 221 0 min 3,5 C 4,2 C 0,0 km/h (0 Bft)
16.11.2019 04:15 4,2 C 94 % 1002,7 hPa 0,8 mm 0,6 km/h (0 Bft) SO 220 0 min 3,3 C 4,2 C 6,4 km/h (2 Bft)
16.11.2019 04:00 4,3 C 94 % 1002,9 hPa 0,5 mm 0,0 km/h (0 Bft) NO 315 0 min 3,4 C 4,3 C 0,0 km/h (0 Bft)
16.11.2019 03:45 4,3 C 94 % 1002,5 hPa 0,0 mm 0,0 km/h (0 Bft) NO 319 0 min 3,4 C 4,3 C 3,2 km/h (1 Bft)
16.11.2019 03:30 4,3 C 94 % 1002,2 hPa 0,3 mm 0,1 km/h (0 Bft) NO 320 0 min 3,4 C 4,3 C 6,4 km/h (2 Bft)
16.11.2019 03:15 4,3 C 94 % 1002,4 hPa 0,0 mm 0,4 km/h (0 Bft) NO 319 0 min 3,4 C 4,3 C 6,4 km/h (2 Bft)
16.11.2019 03:00 4,2 C 94 % 1002,5 hPa 0,0 mm 0,4 km/h (0 Bft) NO 317 0 min 3,3 C 4,2 C 8,0 km/h (2 Bft)
16.11.2019 02:45 4,2 C 94 % 1002,9 hPa 0,0 mm 0,0 km/h (0 Bft) S 184 0 min 3,3 C 4,2 C 0,0 km/h (0 Bft)
16.11.2019 02:30 4,1 C 94 % 1002,8 hPa 0,0 mm 0,0 km/h (0 Bft) S 184 0 min 3,2 C 4,1 C 0,0 km/h (0 Bft)
16.11.2019 02:15 4,2 C 94 % 1002,8 hPa 0,0 mm 0,0 km/h (0 Bft) S 184 0 min 3,3 C 4,2 C 0,0 km/h (0 Bft)
16.11.2019 02:00 4,1 C 94 % 1002,8 hPa 0,0 mm 0,0 km/h (0 Bft) S 184 0 min 3,2 C 4,1 C 0,0 km/h (0 Bft)
_ Min-Heure 01:15 15:30 03:30 - 02:00 - - - 01:15 01:15 02:00
Minimum _ -0,1 C 80 % 1002,2 hPa - 0,0 km/h (0 Bft) - - - -0,9 C -0,1 C 0,0 km/h (0 Bft)
_ Max-Heure 12:15 04:30 01:15 04:15 12:45 - - 11:45 12:15 12:15 12:45
Maximum _ 6,4 C 95 % 1012,5 hPa 0,8 mm 8,8 km/h
SO (2 Bft)
- - 15 min 4,2 C 6,4 C 35,4 km/h
SO (5 Bft)
Moyenne _ 3,6 C 90 % 1007,1 hPa #6,4 mm 1,2 km/h (1 Bft) SO - #0 min. 2,2 C 3,5 C 6,4 km/h (2 Bft)